createdAt,value
2022-10-17T00:01:06.483Z,12.18
2022-10-17T00:03:38.005Z,12.17
2022-10-17T00:06:12.272Z,12.15
2022-10-17T00:08:42.339Z,12.13
2022-10-17T00:11:16.253Z,12.12
2022-10-17T00:13:45.640Z,12.07
2022-10-17T00:16:14.128Z,12.05
2022-10-17T00:18:42.088Z,12.01
2022-10-17T00:21:17.815Z,12.00
2022-10-17T00:23:47.346Z,11.95
2022-10-17T00:26:15.822Z,11.92
2022-10-17T00:28:47.941Z,11.89
2022-10-17T00:31:17.874Z,11.86
2022-10-17T00:33:46.689Z,11.82
2022-10-17T00:36:25.518Z,11.79
2022-10-17T00:38:57.583Z,11.75
2022-10-17T00:41:29.043Z,11.73
2022-10-17T00:43:58.946Z,11.72
2022-10-17T00:46:32.802Z,11.71
2022-10-17T00:49:13.016Z,11.69
2022-10-17T00:51:49.473Z,11.67
2022-10-17T00:54:21.370Z,11.64
2022-10-17T00:56:50.580Z,11.61
2022-10-17T00:59:22.077Z,11.59
2022-10-17T01:02:06.342Z,11.56
2022-10-17T01:04:35.757Z,11.51
2022-10-17T01:07:04.006Z,11.48
2022-10-17T01:09:32.361Z,11.45
2022-10-17T01:12:16.124Z,11.43
2022-10-17T01:15:12.153Z,11.39
2022-10-17T01:18:24.868Z,11.35
2022-10-17T01:21:10.036Z,11.26
2022-10-17T01:24:02.786Z,11.23
2022-10-17T01:26:50.375Z,11.20
2022-10-17T01:29:52.071Z,11.17
2022-10-17T01:32:40.442Z,11.13
2022-10-17T01:35:33.576Z,11.12
2022-10-17T01:38:04.207Z,11.08
2022-10-17T01:40:42.929Z,11.07
2022-10-17T01:43:26.113Z,11.05
2022-10-17T01:46:09.174Z,11.03
2022-10-17T01:48:41.717Z,11.00
2022-10-17T01:51:19.143Z,10.97
2022-10-17T01:53:58.779Z,10.95
2022-10-17T01:56:30.810Z,10.92
2022-10-17T01:59:07.854Z,10.92
2022-10-17T02:01:38.303Z,10.91
2022-10-17T02:04:08.267Z,10.90
2022-10-17T02:06:36.986Z,10.90
2022-10-17T02:09:19.010Z,10.88
2022-10-17T02:12:12.961Z,10.85
2022-10-17T02:14:57.592Z,10.80
2022-10-17T02:17:31.613Z,10.78
2022-10-17T02:20:29.672Z,10.77
2022-10-17T02:23:00.609Z,10.72
2022-10-17T02:25:44.341Z,10.72
2022-10-17T02:28:45.009Z,10.68
2022-10-17T02:31:48.274Z,10.63
2022-10-17T02:34:28.176Z,10.60
2022-10-17T02:37:00.398Z,10.58
2022-10-17T02:39:30.814Z,10.58
2022-10-17T02:42:03.611Z,10.58
2022-10-17T02:44:32.794Z,10.56
2022-10-17T02:47:11.819Z,10.57
2022-10-17T02:49:45.079Z,10.55
2022-10-17T02:52:17.995Z,10.53
2022-10-17T02:54:54.933Z,10.53
2022-10-17T02:57:31.342Z,10.52
2022-10-17T03:00:02.294Z,10.51
2022-10-17T03:02:49.181Z,10.50
2022-10-17T03:05:20.690Z,10.47
2022-10-17T03:07:48.826Z,10.46
2022-10-17T03:10:17.501Z,10.46
2022-10-17T03:12:45.880Z,10.46
2022-10-17T03:15:14.464Z,10.44
2022-10-17T03:17:42.916Z,10.42
2022-10-17T03:20:11.640Z,10.40
2022-10-17T03:22:39.592Z,10.39
2022-10-17T03:25:08.368Z,10.39
2022-10-17T03:27:36.862Z,10.38
2022-10-17T03:30:06.057Z,10.37
2022-10-17T03:32:34.666Z,10.35
2022-10-17T03:35:02.856Z,10.34
2022-10-17T03:37:31.402Z,10.33
2022-10-17T03:39:59.975Z,10.32
2022-10-17T03:42:28.048Z,10.30
2022-10-17T03:44:55.912Z,10.28
2022-10-17T03:47:23.882Z,10.25
2022-10-17T03:49:53.999Z,10.22
2022-10-17T03:52:22.138Z,10.18
2022-10-17T03:54:51.473Z,10.17
2022-10-17T03:57:20.058Z,10.16
2022-10-17T03:59:48.027Z,10.16
2022-10-17T04:02:18.346Z,10.17
2022-10-17T04:04:46.420Z,10.18
2022-10-17T04:07:14.501Z,10.17
2022-10-17T04:09:44.422Z,10.17
2022-10-17T04:12:15.344Z,10.15
2022-10-17T04:14:43.924Z,10.14
2022-10-17T04:17:11.889Z,10.13
2022-10-17T04:19:40.071Z,10.10
2022-10-17T04:22:08.750Z,10.08
2022-10-17T04:24:38.565Z,10.06
2022-10-17T04:27:11.554Z,10.02
2022-10-17T04:29:42.178Z,10.01
2022-10-17T04:32:15.572Z,10.00
2022-10-17T04:34:51.218Z,9.98
2022-10-17T04:37:20.413Z,10.00
2022-10-17T04:39:48.997Z,10.00
2022-10-17T04:42:17.170Z,10.01
2022-10-17T04:44:45.175Z,10.00
2022-10-17T04:47:14.541Z,10.00
2022-10-17T04:49:43.025Z,9.99
2022-10-17T04:52:11.709Z,9.99
2022-10-17T04:54:49.301Z,9.98
2022-10-17T04:57:20.109Z,9.97
2022-10-17T04:59:54.949Z,9.98
2022-10-17T05:02:43.208Z,9.96
2022-10-17T05:05:11.176Z,9.97
2022-10-17T05:07:42.233Z,9.97
2022-10-17T05:10:20.019Z,9.95
2022-10-17T05:12:50.391Z,9.94
2022-10-17T05:15:19.225Z,9.95
2022-10-17T05:17:47.405Z,9.95
2022-10-17T05:20:15.802Z,9.95
2022-10-17T05:22:44.395Z,9.96
2022-10-17T05:25:12.641Z,9.96
2022-10-17T05:27:40.611Z,9.98
2022-10-17T05:30:10.418Z,10.02
2022-10-17T05:32:38.971Z,10.06
2022-10-17T05:35:07.428Z,10.10
2022-10-17T05:37:37.092Z,10.12
2022-10-17T05:40:06.454Z,10.16
2022-10-17T05:42:34.426Z,10.19
2022-10-17T05:45:03.856Z,10.23
2022-10-17T05:47:32.283Z,10.28
2022-10-17T05:50:00.611Z,10.33
2022-10-17T05:52:33.457Z,10.40
2022-10-17T05:55:11.190Z,10.45
2022-10-17T05:57:40.291Z,10.53
2022-10-17T06:00:12.557Z,10.65
2022-10-17T06:02:46.224Z,10.76
2022-10-17T06:05:16.457Z,10.85
2022-10-17T06:07:44.961Z,10.94
2022-10-17T06:10:16.616Z,11.03
2022-10-17T06:12:45.539Z,11.10
2022-10-17T06:15:13.648Z,11.18
2022-10-17T06:17:44.104Z,11.30
2022-10-17T06:20:12.382Z,11.44
2022-10-17T06:22:40.309Z,11.55
2022-10-17T06:25:14.051Z,11.69
2022-10-17T06:27:43.102Z,11.83
2022-10-17T06:30:12.240Z,12.00
2022-10-17T06:32:40.825Z,12.13
2022-10-17T06:35:09.469Z,12.26
2022-10-17T06:37:38.221Z,12.40
2022-10-17T06:40:12.335Z,12.54
2022-10-17T06:42:41.770Z,12.68
2022-10-17T06:45:25.240Z,12.77
2022-10-17T06:48:08.881Z,12.89
2022-10-17T06:50:53.475Z,12.99
2022-10-17T06:53:25.297Z,13.09
2022-10-17T06:56:16.298Z,13.16
2022-10-17T06:58:54.816Z,13.24
2022-10-17T07:01:36.712Z,13.31
2022-10-17T07:04:05.809Z,13.38
2022-10-17T07:06:35.036Z,13.45
2022-10-17T07:09:09.701Z,13.53
2022-10-17T07:11:38.316Z,13.60
2022-10-17T07:14:06.275Z,13.63
2022-10-17T07:16:35.369Z,13.66
2022-10-17T07:19:13.679Z,13.69
2022-10-17T07:21:41.649Z,13.69
2022-10-17T07:24:11.773Z,13.68
2022-10-17T07:26:42.704Z,13.68
2022-10-17T07:29:11.797Z,13.68
2022-10-17T07:31:55.638Z,13.70
2022-10-17T07:34:27.707Z,13.73
2022-10-17T07:36:55.902Z,13.78
2022-10-17T07:39:24.257Z,13.82
2022-10-17T07:41:52.388Z,13.87
2022-10-17T07:44:20.395Z,13.94
2022-10-17T07:46:50.943Z,13.99
2022-10-17T07:49:19.400Z,14.05
2022-10-17T07:51:48.688Z,14.13
2022-10-17T07:54:16.670Z,14.19
2022-10-17T07:56:50.871Z,14.26
2022-10-17T07:59:19.467Z,14.31
2022-10-17T08:01:47.608Z,14.34
2022-10-17T08:04:17.021Z,14.38
2022-10-17T08:06:45.220Z,14.42
2022-10-17T08:09:13.289Z,14.45
2022-10-17T08:11:44.114Z,14.49
2022-10-17T08:14:13.397Z,14.51
2022-10-17T08:16:41.495Z,14.53
2022-10-17T08:19:11.614Z,14.52
2022-10-17T08:21:39.780Z,14.53
2022-10-17T08:24:07.666Z,14.57
2022-10-17T08:26:39.255Z,14.64
2022-10-17T08:29:15.256Z,14.70
2022-10-17T08:31:47.476Z,14.78
2022-10-17T08:34:16.416Z,14.86
2022-10-17T08:36:44.312Z,14.96
2022-10-17T08:39:12.353Z,15.05
2022-10-17T08:41:54.761Z,15.14
2022-10-17T08:44:36.250Z,15.21
2022-10-17T08:47:11.585Z,15.26
2022-10-17T08:49:49.081Z,15.32
2022-10-17T08:52:41.003Z,15.37
2022-10-17T08:55:28.122Z,15.33
2022-10-17T08:57:56.060Z,15.32
2022-10-17T09:00:25.489Z,15.33
2022-10-17T09:03:08.663Z,15.37
2022-10-17T09:05:39.553Z,15.41
2022-10-17T09:08:13.560Z,15.45
2022-10-17T09:11:07.576Z,15.48
2022-10-17T09:13:51.276Z,15.49
2022-10-17T09:16:47.817Z,15.52
2022-10-17T09:19:31.039Z,15.55
2022-10-17T09:22:03.311Z,15.58
2022-10-17T09:24:49.348Z,15.62
2022-10-17T09:27:57.841Z,15.64
2022-10-17T09:30:48.211Z,15.65
2022-10-17T09:33:28.368Z,15.67
2022-10-17T09:36:17.912Z,15.77
2022-10-17T09:38:53.974Z,15.89
2022-10-17T09:41:44.128Z,15.99
2022-10-17T09:44:20.243Z,16.14
2022-10-17T09:46:56.511Z,16.29
2022-10-17T09:49:36.888Z,16.43
2022-10-17T09:52:11.082Z,16.58
2022-10-17T09:54:44.478Z,16.72
2022-10-17T09:57:13.798Z,16.85
2022-10-17T09:59:48.100Z,16.94
2022-10-17T10:02:17.802Z,17.01
2022-10-17T10:05:07.098Z,17.04
2022-10-17T10:07:39.578Z,17.06
2022-10-17T10:10:24.403Z,17.09
2022-10-17T10:13:14.965Z,17.13
2022-10-17T10:15:45.750Z,17.15
2022-10-17T10:21:17.517Z,17.21
2022-10-17T10:24:03.529Z,17.23
2022-10-17T10:26:45.127Z,17.25
2022-10-17T10:29:34.384Z,17.28
2022-10-17T10:32:24.136Z,17.29
2022-10-17T10:35:09.410Z,17.33
2022-10-17T10:37:44.014Z,17.38
2022-10-17T10:40:37.599Z,17.43
2022-10-17T10:43:06.779Z,17.48
2022-10-17T10:45:52.814Z,17.53
2022-10-17T10:48:30.704Z,17.59
2022-10-17T10:51:37.773Z,17.65
2022-10-17T10:54:13.224Z,17.70
2022-10-17T10:56:44.559Z,17.79
2022-10-17T10:59:27.518Z,17.90
2022-10-17T11:02:19.100Z,18.01
2022-10-17T11:05:11.491Z,18.10
2022-10-17T11:07:47.188Z,18.22
2022-10-17T11:10:30.209Z,18.33
2022-10-17T11:13:06.780Z,18.46
2022-10-17T11:15:47.749Z,18.58
2022-10-17T11:18:22.429Z,18.67
2022-10-17T11:21:23.606Z,18.77
2022-10-17T11:24:09.068Z,18.80
2022-10-17T11:26:45.365Z,18.83
2022-10-17T11:29:13.937Z,18.89
2022-10-17T11:31:55.941Z,18.93
2022-10-17T11:34:29.809Z,18.97
2022-10-17T11:37:12.636Z,19.00
2022-10-17T11:40:02.367Z,19.04
2022-10-17T11:42:40.793Z,19.07
2022-10-17T11:45:14.522Z,19.17
2022-10-17T11:47:50.517Z,19.21
2022-10-17T11:53:16.269Z,19.26
2022-10-17T11:55:45.839Z,19.31
2022-10-17T11:58:39.690Z,19.35
2022-10-17T12:01:10.725Z,19.34
2022-10-17T12:03:57.672Z,19.38
2022-10-17T12:06:39.633Z,19.41
2022-10-17T12:09:16.574Z,19.44
2022-10-17T12:11:55.482Z,19.48
2022-10-17T12:14:38.364Z,19.52
2022-10-17T12:17:39.023Z,19.55
2022-10-17T12:20:25.203Z,19.57
2022-10-17T12:22:54.531Z,19.61
2022-10-17T12:25:23.966Z,19.68
2022-10-17T12:28:02.670Z,19.73
2022-10-17T12:30:30.792Z,19.74
2022-10-17T12:33:22.330Z,19.78
2022-10-17T12:35:51.620Z,19.81
2022-10-17T12:38:21.149Z,19.86
2022-10-17T12:40:54.477Z,19.90
2022-10-17T12:43:28.143Z,19.95
2022-10-17T12:46:00.871Z,20.01
2022-10-17T12:48:34.852Z,20.06
2022-10-17T12:51:34.277Z,20.10
2022-10-17T12:54:00.592Z,20.12
2022-10-17T12:56:36.571Z,20.14
2022-10-17T12:59:28.053Z,20.18
2022-10-17T13:02:00.263Z,20.22
2022-10-17T13:04:30.746Z,20.27
2022-10-17T13:07:01.276Z,20.30
2022-10-17T13:09:37.585Z,20.34
2022-10-17T13:12:12.458Z,20.34
2022-10-17T13:14:42.987Z,20.35
2022-10-17T13:17:27.626Z,20.36
2022-10-17T13:19:56.451Z,20.35
2022-10-17T13:22:28.661Z,20.35
2022-10-17T13:25:27.081Z,20.34
2022-10-17T13:28:07.644Z,20.29
2022-10-17T13:30:36.822Z,20.27
2022-10-17T13:33:19.407Z,20.27
2022-10-17T13:35:59.982Z,20.25
2022-10-17T13:38:32.611Z,20.22
2022-10-17T13:41:23.249Z,20.20
2022-10-17T13:43:51.365Z,20.15
2022-10-17T13:46:40.168Z,20.16
2022-10-17T13:49:37.167Z,20.15
2022-10-17T13:52:07.802Z,20.14
2022-10-17T13:54:41.476Z,20.15
2022-10-17T13:57:25.690Z,20.15
2022-10-17T14:00:19.528Z,20.17
2022-10-17T14:02:48.595Z,20.15
2022-10-17T14:05:19.451Z,20.16
2022-10-17T14:10:44.273Z,20.18
2022-10-17T14:13:25.342Z,20.20
2022-10-17T14:15:56.390Z,20.19
2022-10-17T14:18:35.697Z,20.18
2022-10-17T14:24:17.028Z,20.12
2022-10-17T14:26:50.496Z,20.08
2022-10-17T14:29:22.154Z,20.08
2022-10-17T14:31:53.719Z,20.08
2022-10-17T14:34:27.961Z,20.07
2022-10-17T14:36:56.062Z,20.03
2022-10-17T14:39:26.533Z,20.02
2022-10-17T14:41:54.941Z,20.01
2022-10-17T14:44:29.534Z,19.98
2022-10-17T14:47:30.730Z,19.94
2022-10-17T14:50:28.242Z,19.90
2022-10-17T14:53:22.424Z,19.84
2022-10-17T14:56:02.566Z,19.80
2022-10-17T14:58:33.463Z,19.77
2022-10-17T15:01:02.522Z,19.75
2022-10-17T15:03:30.605Z,19.75
2022-10-17T15:05:59.575Z,19.74
2022-10-17T15:08:27.642Z,19.71
2022-10-17T15:10:55.613Z,19.69
2022-10-17T15:13:28.267Z,19.67
2022-10-17T15:15:57.587Z,19.62
2022-10-17T15:18:25.553Z,19.59
2022-10-17T15:21:04.487Z,19.55
2022-10-17T15:23:34.811Z,19.49
2022-10-17T15:26:02.789Z,19.44
2022-10-17T15:28:30.771Z,19.40
2022-10-17T15:30:58.708Z,19.38
2022-10-17T15:33:26.990Z,19.34
2022-10-17T15:35:55.152Z,19.33
2022-10-17T15:38:23.130Z,19.30
2022-10-17T15:40:52.218Z,19.27
2022-10-17T15:43:20.287Z,19.26
2022-10-17T15:45:48.874Z,19.24
2022-10-17T15:48:23.501Z,19.23
2022-10-17T15:50:51.469Z,19.19
2022-10-17T15:53:19.744Z,19.18
2022-10-17T15:55:51.091Z,19.14
2022-10-17T15:58:19.874Z,19.12
2022-10-17T16:00:48.887Z,19.10
2022-10-17T16:03:16.948Z,19.07
2022-10-17T16:05:45.009Z,19.04
2022-10-17T16:08:12.977Z,18.99
2022-10-17T16:10:41.169Z,18.95
2022-10-17T16:13:17.442Z,18.91
2022-10-17T16:15:45.495Z,18.87
2022-10-17T16:18:13.653Z,18.82
2022-10-17T16:20:41.929Z,18.80
2022-10-17T16:23:12.765Z,18.76
2022-10-17T16:25:41.318Z,18.73
2022-10-17T16:28:11.900Z,18.68
2022-10-17T16:30:44.997Z,18.65
2022-10-17T16:33:13.492Z,18.62
2022-10-17T16:35:41.628Z,18.60
2022-10-17T16:38:09.585Z,18.56
2022-10-17T16:40:39.690Z,18.54
2022-10-17T16:43:11.134Z,18.51
2022-10-17T16:45:39.425Z,18.50
2022-10-17T16:48:07.414Z,18.50
2022-10-17T16:50:39.204Z,18.46
2022-10-17T16:53:07.331Z,18.41
2022-10-17T16:55:35.394Z,18.38
2022-10-17T16:58:03.361Z,18.34
2022-10-17T17:00:31.370Z,18.29
2022-10-17T17:02:59.402Z,18.28
2022-10-17T17:05:27.471Z,18.27
2022-10-17T17:07:56.261Z,18.25
2022-10-17T17:10:24.335Z,18.23
2022-10-17T17:12:52.304Z,18.21
2022-10-17T17:15:20.285Z,18.20
2022-10-17T17:17:52.441Z,18.19
2022-10-17T17:20:22.999Z,18.17
2022-10-17T17:22:52.520Z,18.16
2022-10-17T17:25:22.547Z,18.15
2022-10-17T17:27:50.764Z,18.14
2022-10-17T17:30:18.877Z,18.12
2022-10-17T17:32:46.899Z,18.08
2022-10-17T17:35:14.969Z,18.07
2022-10-17T17:37:42.939Z,18.03
2022-10-17T17:40:11.723Z,18.01
2022-10-17T17:42:39.743Z,17.99
2022-10-17T17:45:08.917Z,17.98
2022-10-17T17:47:36.858Z,17.95
2022-10-17T17:50:05.518Z,17.95
2022-10-17T17:52:33.571Z,17.94
2022-10-17T17:55:01.666Z,17.95
2022-10-17T17:57:30.282Z,17.95
2022-10-17T17:59:58.299Z,17.94
2022-10-17T18:02:26.303Z,17.94
2022-10-17T18:04:54.274Z,17.94
2022-10-17T18:07:23.341Z,17.94
2022-10-17T18:09:51.849Z,17.95
2022-10-17T18:12:19.815Z,17.93
2022-10-17T18:14:48.265Z,17.91
2022-10-17T18:17:16.371Z,17.91
2022-10-17T18:19:44.331Z,17.89
2022-10-17T18:22:12.400Z,17.87
2022-10-17T18:24:41.059Z,17.88
2022-10-17T18:27:08.957Z,17.87
2022-10-17T18:29:36.922Z,17.87
2022-10-17T18:32:05.588Z,17.85
2022-10-17T18:34:33.785Z,17.86
2022-10-17T18:37:02.784Z,17.85
2022-10-17T18:39:31.151Z,17.85
2022-10-17T18:41:59.024Z,17.85
2022-10-17T18:44:27.495Z,17.86
2022-10-17T18:46:58.626Z,17.85
2022-10-17T18:49:29.683Z,17.86
2022-10-17T18:51:57.704Z,17.87
2022-10-17T18:54:25.718Z,17.88
2022-10-17T18:56:54.816Z,17.89
2022-10-17T18:59:23.800Z,17.89
2022-10-17T19:01:52.190Z,17.90
2022-10-17T19:04:20.353Z,17.93
2022-10-17T19:06:48.521Z,17.94
2022-10-17T19:09:16.700Z,17.95
2022-10-17T19:11:44.770Z,17.96
2022-10-17T19:14:13.619Z,17.97
2022-10-17T19:16:45.417Z,17.97
2022-10-17T19:19:20.657Z,17.97
2022-10-17T19:21:50.673Z,17.95
2022-10-17T19:24:24.542Z,17.96
2022-10-17T19:26:56.133Z,17.97
2022-10-17T19:29:27.282Z,17.99
2022-10-17T19:34:24.544Z,17.98
2022-10-17T19:36:52.512Z,18.00
2022-10-17T19:39:22.987Z,18.00
2022-10-17T19:41:51.109Z,18.00
2022-10-17T19:44:19.381Z,18.01
2022-10-17T19:46:49.411Z,18.02
2022-10-17T19:49:18.208Z,18.02
2022-10-17T19:51:46.388Z,18.04
2022-10-17T19:54:16.683Z,18.06
2022-10-17T19:56:44.647Z,18.07
2022-10-17T19:59:16.342Z,18.08
2022-10-17T20:01:44.739Z,18.09
2022-10-17T20:04:13.576Z,18.10
2022-10-17T20:06:42.122Z,18.11
2022-10-17T20:09:15.716Z,18.11
2022-10-17T20:11:45.517Z,18.11
2022-10-17T20:14:13.738Z,18.11
2022-10-17T20:16:44.934Z,18.10
2022-10-17T20:19:13.888Z,18.08
2022-10-17T20:21:42.854Z,18.07
2022-10-17T20:24:14.729Z,18.06
2022-10-17T20:26:43.427Z,18.04
2022-10-17T20:29:15.477Z,18.02
2022-10-17T20:31:45.694Z,18.01
2022-10-17T20:34:15.707Z,18.02
2022-10-17T20:36:44.150Z,18.01
2022-10-17T20:39:14.620Z,18.02
2022-10-17T20:41:43.494Z,18.00
2022-10-17T20:44:12.704Z,17.99
2022-10-17T20:46:45.347Z,17.98
2022-10-17T20:49:25.898Z,17.95
2022-10-17T20:51:53.938Z,17.93
2022-10-17T20:54:22.577Z,17.90
2022-10-17T20:56:50.592Z,17.87
2022-10-17T20:59:18.944Z,17.84
2022-10-17T21:01:47.900Z,17.81
2022-10-17T21:04:44.113Z,17.79
2022-10-17T21:07:03.997Z,17.75
2022-10-17T21:09:32.015Z,17.72
2022-10-17T21:14:36.551Z,17.70
2022-10-17T21:17:05.503Z,17.70
2022-10-17T21:19:34.083Z,17.69
2022-10-17T21:22:02.100Z,17.72
2022-10-17T21:24:30.999Z,17.74
2022-10-17T21:26:59.260Z,17.76
2022-10-17T21:29:27.329Z,17.78
2022-10-17T21:31:55.379Z,17.78
2022-10-17T21:34:25.194Z,17.79
2022-10-17T21:36:53.730Z,17.80
2022-10-17T21:39:24.272Z,17.81
2022-10-17T21:41:53.321Z,17.81
2022-10-17T21:44:24.971Z,17.81
2022-10-17T21:46:54.473Z,17.80
2022-10-17T21:49:25.205Z,17.80
2022-10-17T21:51:53.912Z,17.80
2022-10-17T21:54:23.673Z,17.80
2022-10-17T21:56:51.975Z,17.80
2022-10-17T21:59:19.944Z,17.79
2022-10-17T22:01:48.007Z,17.79
2022-10-17T22:04:18.152Z,17.78
2022-10-17T22:06:51.293Z,17.77
2022-10-17T22:09:24.697Z,17.75
2022-10-17T22:11:55.765Z,17.73
2022-10-17T22:14:25.573Z,17.72
2022-10-17T22:16:54.048Z,17.71
2022-10-17T22:19:25.501Z,17.70
2022-10-17T22:21:54.357Z,17.69
2022-10-17T22:24:23.430Z,17.69
2022-10-17T22:26:51.964Z,17.67
2022-10-17T22:29:20.241Z,17.67
2022-10-17T22:31:48.214Z,17.66
2022-10-17T22:34:17.612Z,17.64
2022-10-17T22:36:47.865Z,17.65
2022-10-17T22:39:16.004Z,17.63
2022-10-17T22:41:44.178Z,17.61
2022-10-17T22:44:12.148Z,17.59
2022-10-17T22:46:40.024Z,17.57
2022-10-17T22:49:07.980Z,17.55
2022-10-17T22:51:35.960Z,17.52
2022-10-17T22:54:04.298Z,17.51
2022-10-17T22:56:32.402Z,17.48
2022-10-17T22:59:00.468Z,17.45
2022-10-17T23:01:28.505Z,17.41
2022-10-17T23:03:56.508Z,17.38
2022-10-17T23:06:24.684Z,17.35
2022-10-17T23:08:52.785Z,17.31
2022-10-17T23:11:21.115Z,17.27
2022-10-17T23:13:49.302Z,17.23
2022-10-17T23:16:17.560Z,17.20
2022-10-17T23:18:45.769Z,17.16
2022-10-17T23:21:13.822Z,17.14
2022-10-17T23:23:41.918Z,17.10
2022-10-17T23:26:12.847Z,17.05
2022-10-17T23:28:42.358Z,17.02
2022-10-17T23:31:17.263Z,16.98
2022-10-17T23:33:47.189Z,16.95
2022-10-17T23:36:17.256Z,16.91
2022-10-17T23:38:47.003Z,16.88
2022-10-17T23:41:15.387Z,16.86
2022-10-17T23:43:44.282Z,16.84
2022-10-17T23:46:12.683Z,16.81
2022-10-17T23:48:41.217Z,16.79
2022-10-17T23:51:10.735Z,16.77
2022-10-17T23:53:40.140Z,16.75
2022-10-17T23:56:10.321Z,16.74
2022-10-17T23:58:39.453Z,16.72
